< < Back
Terminal Aerodrome Forecast


Current Version              Previous Versions:   1  2  3  4  5  6  7  8  9  

Terminal Aerodrome Forecast

508
FTAK31 PAJN 310500
TAFAGS
TAF
PAGS 310520Z 3106/0106 15005KT P6SM VCSH SCT022 OVC035
      TEMPO 3106/3109 -SHRA BKN022
     FM311400 14009KT P6SM -SHRA SCT015 BKN025 OVC035
      AMD NOT SKED=

Latest METAR

565
SAUS70 KWBC 310700 RRF
MTRAGS
METAR KAGS 310653Z AUTO 00000KT 10SM CLR 06/06 A2993 RMK AO2 SLP133
T00610056


USA.gov is the U.S. government's official web portal to all federal, state and local government web resources and services.